Alsip, Illinois
Current Conditions -  °F | °C
As of 8:53 PM on Saturday 25 Oct 2014 (Local Time) from KMDW Reporting Station
Clear Clear  
Wind Chill: 17°   Ceiling: Unl
Heat Index: 17°   Visibility: 10mi
Dew Point: -1°   Wind: 10mph
Humidity: 30%   Direction: 310°NW
Pressure: 29.96"   Gusts: NA
Location:  41.67°N, 87.73°W
Report Text: KMDW 260153Z 31009KT 10SM CLR 17/M01 A2996 RMK AO2 SLP142 T01671011
Loading
Personal Weather Stations






























Interactive Weather Map
Tropical Storm Tracking
New forecast layout! Learn more

10-Day Weather Forecast

Advertisements
Track Severe Weather on mobile